Time;durP1;ratioP1;P1;durP2;ratioP2;P2;SDS_P1;SDS_P2;PMS_P1;PMS_P2;Temp;Humidity;BMP_temperature;BMP_pressure;BME280_temperature;BME280_humidity;BME280_pressure;Samples;Min_cycle;Max_cycle;Signal;HPM_P1;HPM_P2
2024/02/11 00:02:09;;;;;;;17.27;11.70;;;;;;;8.74;79.13;93886.91;5011701;28;20042;-79
2024/02/11 00:04:37;;;;;;;15.25;9.75;;;;;;;8.72;79.08;93881.94;5011775;28;20092;-79
2024/02/11 00:07:07;;;;;;;14.40;10.45;;;;;;;8.71;78.98;93893.38;5011977;28;20722;-79
2024/02/11 00:09:34;;;;;;;14.88;10.05;;;;;;;8.70;78.83;93896.19;5012140;28;20054;-79
2024/02/11 00:12:02;;;;;;;16.67;11.13;;;;;;;8.68;79.37;93887.84;5011834;28;20045;-79
2024/02/11 00:14:29;;;;;;;19.42;13.18;;;;;;;8.65;79.18;93897.69;5011439;28;20136;-79
2024/02/11 00:16:59;;;;;;;15.90;11.45;;;;;;;8.64;79.89;93903.91;5012371;28;20049;-79
2024/02/11 00:19:27;;;;;;;19.65;13.00;;;;;;;8.65;80.03;93908.06;5012229;28;20461;-79
2024/02/11 00:21:55;;;;;;;17.55;12.45;;;;;;;8.66;80.16;93916.69;5011782;28;20056;-79
2024/02/11 00:24:29;;;;;;;18.75;13.02;;;;;;;8.67;80.64;93923.44;5012526;28;20046;-79
2024/02/11 00:26:57;;;;;;;16.55;12.45;;;;;;;8.72;80.67;93922.72;5015369;28;20064;-79
2024/02/11 00:29:24;;;;;;;17.98;12.45;;;;;;;8.71;80.92;93923.78;5015295;28;20060;-79
2024/02/11 00:31:52;;;;;;;18.70;13.05;;;;;;;8.70;80.51;93924.78;5014835;28;20056;-78
2024/02/11 00:34:20;;;;;;;21.08;13.95;;;;;;;8.71;80.70;93934.16;4994736;28;20046;-79
2024/02/11 00:36:49;;;;;;;17.65;13.07;;;;;;;8.72;81.69;93938.31;4993332;28;20549;-79
2024/02/11 00:39:18;;;;;;;17.13;12.80;;;;;;;8.75;81.24;93943.84;4994036;28;20108;-79
2024/02/11 00:41:47;;;;;;;17.45;12.45;;;;;;;8.74;80.67;93944.09;4994550;28;20053;-78
2024/02/11 00:44:15;;;;;;;17.77;12.20;;;;;;;8.72;80.70;93948.72;4994695;28;20407;-79
2024/02/11 00:46:42;;;;;;;14.57;10.93;;;;;;;8.75;81.46;93951.66;4994956;28;20050;-79
2024/02/11 00:49:10;;;;;;;17.30;11.88;;;;;;;8.76;81.16;93952.44;4995567;28;20051;-79
2024/02/11 00:51:38;;;;;;;15.63;11.57;;;;;;;8.77;81.11;93956.63;4995636;28;20096;-79
2024/02/11 00:54:05;;;;;;;12.77;10.77;;;;;;;8.77;81.19;93960.00;4995003;28;20057;-79
2024/02/11 00:56:33;;;;;;;18.70;12.80;;;;;;;8.79;81.48;93959.75;4995398;28;20057;-79
2024/02/11 00:59:02;;;;;;;15.50;12.30;;;;;;;8.78;82.11;93968.59;4995501;28;20569;-79
2024/02/11 01:01:29;;;;;;;16.08;12.35;;;;;;;8.80;83.46;93966.53;4995088;28;20069;-79
2024/02/11 01:03:57;;;;;;;15.23;11.65;;;;;;;8.80;83.03;93974.34;4995145;28;20050;-79
2024/02/11 01:06:25;;;;;;;15.73;12.30;;;;;;;8.78;82.65;93978.97;4994514;28;20058;-79
2024/02/11 01:08:53;;;;;;;16.48;11.95;;;;;;;8.78;82.76;93971.97;4994548;28;20072;-79
2024/02/11 01:11:21;;;;;;;17.60;12.20;;;;;;;8.78;82.78;93971.19;5006919;28;20050;-79
2024/02/11 01:13:50;;;;;;;13.98;11.82;;;;;;;8.81;83.72;93983.69;5018582;28;20053;-79
2024/02/11 01:16:19;;;;;;;20.48;13.68;;;;;;;8.82;83.69;93980.09;5013991;28;20050;-79
2024/02/11 01:18:46;;;;;;;15.98;12.77;;;;;;;8.85;83.74;93982.22;5014385;28;20144;-79
2024/02/11 01:21:14;;;;;;;17.05;12.40;;;;;;;8.87;84.28;93980.16;5014017;28;20579;-79
2024/02/11 01:23:42;;;;;;;17.33;13.85;;;;;;;8.93;84.84;93989.63;5014176;28;20136;-79
2024/02/11 01:26:09;;;;;;;18.55;13.98;;;;;;;8.96;84.75;93985.75;5015005;28;20060;-79
2024/02/11 01:28:39;;;;;;;20.92;13.75;;;;;;;8.97;84.45;93992.56;5014761;28;20050;-79
2024/02/11 01:31:07;;;;;;;17.58;13.32;;;;;;;8.98;84.95;93987.09;5029120;28;20046;-78
2024/02/11 01:33:36;;;;;;;17.48;12.93;;;;;;;9.02;85.71;93993.41;5036096;28;20050;-78
2024/02/11 01:36:04;;;;;;;16.88;14.05;;;;;;;9.07;85.54;93996.13;5021432;28;20057;-79
2024/02/11 01:38:32;;;;;;;16.73;12.65;;;;;;;9.10;85.77;93989.66;5014790;28;20068;-78
2024/02/11 01:41:00;;;;;;;16.08;13.18;;;;;;;9.16;86.34;93995.69;5014218;28;20056;-79
2024/02/11 01:43:27;;;;;;;15.48;12.88;;;;;;;9.20;85.96;94007.22;5014106;28;20142;-79
2024/02/11 01:45:55;;;;;;;18.02;13.50;;;;;;;9.21;85.62;94006.19;5013891;28;20136;-79
2024/02/11 01:48:23;;;;;;;16.10;12.68;;;;;;;9.25;85.75;94007.31;5014025;28;20445;-79
2024/02/11 01:50:53;;;;;;;15.73;12.50;;;;;;;9.29;86.80;94008.38;5014100;28;20045;-79
2024/02/11 01:53:21;;;;;;;17.85;13.40;;;;;;;9.36;87.30;94008.22;5013968;28;20050;-78
2024/02/11 01:55:49;;;;;;;14.73;11.60;;;;;;;9.41;86.92;94013.53;5013648;28;20407;-79
2024/02/11 01:58:18;;;;;;;13.88;11.10;;;;;;;9.46;86.55;94014.38;5013510;28;20506;-78
2024/02/11 02:00:48;;;;;;;13.48;10.82;;;;;;;9.49;86.40;94013.91;5013583;28;20081;-79
2024/02/11 02:03:17;;;;;;;14.13;11.25;;;;;;;9.52;86.28;94019.66;5016126;28;20045;-79
2024/02/11 02:05:45;;;;;;;14.05;11.75;;;;;;;9.55;86.23;94016.56;5013331;28;20053;-79
2024/02/11 02:08:15;;;;;;;13.65;11.20;;;;;;;9.55;86.58;94012.16;5013565;28;20053;-78
2024/02/11 02:10:44;;;;;;;15.82;11.70;;;;;;;9.59;86.64;94007.28;5013502;28;20107;-79
2024/02/11 02:13:12;;;;;;;14.20;11.73;;;;;;;9.63;86.93;94018.78;5013337;28;20123;-79
2024/02/11 02:15:40;;;;;;;16.88;11.82;;;;;;;9.66;87.25;94013.09;5013224;28;20049;-79
2024/02/11 02:18:10;;;;;;;13.07;10.85;;;;;;;9.69;87.22;94013.41;5013666;28;20064;-79
2024/02/11 02:20:38;;;;;;;18.05;11.45;;;;;;;9.74;87.50;94014.50;5013776;28;20046;-79
2024/02/11 02:23:07;;;;;;;12.75;11.27;;;;;;;9.75;87.31;94019.50;5017547;28;20099;-79
2024/02/11 02:25:35;;;;;;;12.10;10.40;;;;;;;9.76;87.17;94013.25;5013409;28;20058;-79
2024/02/11 02:28:05;;;;;;;12.93;10.82;;;;;;;9.80;87.60;94023.97;5013117;28;20058;-79
2024/02/11 02:30:33;;;;;;;15.05;11.55;;;;;;;9.84;87.47;94028.47;5013232;28;20145;-79
2024/02/11 02:33:00;;;;;;;14.73;11.38;;;;;;;9.87;87.60;94020.16;5013061;28;20134;-79
2024/02/11 02:35:28;;;;;;;13.43;11.23;;;;;;;9.90;87.27;94024.91;5012711;28;20568;-79
2024/02/11 02:37:55;;;;;;;15.75;11.40;;;;;;;9.93;87.21;94022.81;5067550;22;20135;-75
2024/02/11 02:40:26;;;;;;;11.50;9.43;;;;;;;9.92;86.96;94027.25;5053366;28;20512;-75
2024/02/11 02:42:56;;;;;;;12.98;10.32;;;;;;;9.94;86.41;94024.41;5054010;28;20123;-75
2024/02/11 02:45:24;;;;;;;16.52;11.55;;;;;;;9.93;86.74;94020.22;5054496;28;20048;-76
2024/02/11 02:47:53;;;;;;;11.68;10.07;;;;;;;9.94;87.31;94024.41;5053592;28;20048;-75
2024/02/11 02:50:21;;;;;;;11.38;9.73;;;;;;;9.94;87.03;94019.19;5055021;28;20579;-75
2024/02/11 02:52:49;;;;;;;13.88;10.38;;;;;;;9.94;86.31;94027.00;5072754;28;20044;-75
2024/02/11 02:55:17;;;;;;;13.38;9.27;;;;;;;9.93;86.83;94030.63;5072871;28;20505;-75
2024/02/11 02:57:46;;;;;;;11.85;9.88;;;;;;;9.94;86.75;94030.41;5073235;28;20131;-76
2024/02/11 03:00:14;;;;;;;11.85;9.25;;;;;;;9.97;86.78;94029.13;5074803;28;20048;-76
2024/02/11 03:02:44;;;;;;;11.30;8.48;;;;;;;10.00;87.19;94026.06;5073894;28;20041;-76
2024/02/11 03:05:12;;;;;;;13.80;9.48;;;;;;;9.98;86.57;94025.50;5073715;28;20105;-76
2024/02/11 03:07:40;;;;;;;13.02;9.98;;;;;;;9.96;86.35;94022.34;5073699;28;20132;-75
2024/02/11 03:10:08;;;;;;;11.60;9.27;;;;;;;9.96;86.30;94022.34;5073113;28;20484;-76
2024/02/11 03:12:36;;;;;;;11.45;8.80;;;;;;;9.96;85.95;94027.56;5072467;28;20097;-76
2024/02/11 03:15:07;;;;;;;11.18;9.00;;;;;;;10.00;87.27;94028.66;5072012;28;20574;-76
2024/02/11 03:17:34;;;;;;;10.52;9.32;;;;;;;10.02;86.48;94032.59;5071778;28;20542;-76
2024/02/11 03:20:02;;;;;;;11.05;8.32;;;;;;;10.00;85.75;94033.88;5072599;28;20079;-75
2024/02/11 03:22:30;;;;;;;10.48;8.60;;;;;;;9.97;86.32;94026.53;5072274;28;20415;-75
2024/02/11 03:24:58;;;;;;;11.15;8.77;;;;;;;10.00;87.31;94024.22;5071768;28;20045;-75
2024/02/11 03:27:26;;;;;;;10.40;8.32;;;;;;;10.01;87.26;94032.81;5071910;28;20045;-75
2024/02/11 03:29:53;;;;;;;9.85;8.02;;;;;;;10.03;87.14;94028.94;5071964;28;20106;-75
2024/02/11 03:32:22;;;;;;;10.60;9.00;;;;;;;10.03;87.43;94035.97;5071749;28;20127;-76
2024/02/11 03:34:50;;;;;;;8.77;7.88;;;;;;;10.01;86.81;94030.22;5072104;28;20551;-75
2024/02/11 03:37:17;;;;;;;9.00;7.68;;;;;;;10.01;86.75;94040.63;5072032;28;20052;-75
2024/02/11 03:39:45;;;;;;;9.25;7.95;;;;;;;10.01;86.70;94044.03;5076548;28;20488;-75
2024/02/11 03:42:13;;;;;;;8.70;7.68;;;;;;;10.06;87.25;94045.94;5074343;28;20131;-75
2024/02/11 03:44:40;;;;;;;13.10;8.52;;;;;;;10.06;86.55;94043.31;5071917;28;20044;-75
2024/02/11 03:47:08;;;;;;;9.52;8.15;;;;;;;10.07;86.90;94045.66;5087309;28;20075;-75
2024/02/11 03:49:36;;;;;;;8.45;7.28;;;;;;;10.08;87.13;94044.66;5092118;28;20048;-76
2024/02/11 03:52:05;;;;;;;10.05;7.70;;;;;;;10.09;87.44;94048.03;5075183;28;20049;-76
2024/02/11 03:54:32;;;;;;;9.95;8.32;;;;;;;10.10;87.24;94054.81;5059109;28;20129;-76
2024/02/11 03:57:00;;;;;;;8.85;7.32;;;;;;;10.09;87.45;94053.25;5053696;28;20053;-75
2024/02/11 03:59:27;;;;;;;10.18;7.70;;;;;;;10.12;88.01;94055.38;5055172;28;20056;-75
2024/02/11 04:01:55;;;;;;;9.27;8.23;;;;;;;10.13;87.30;94056.19;5056023;28;20049;-75
2024/02/11 04:04:22;;;;;;;9.40;8.10;;;;;;;10.11;87.25;94061.63;5055105;28;20496;-75
2024/02/11 04:06:54;;;;;;;9.80;7.93;;;;;;;10.10;87.65;94060.03;5055896;28;20049;-75
2024/02/11 04:09:28;;;;;;;11.07;8.48;;;;;;;10.12;87.90;94057.97;5055491;28;20053;-75
2024/02/11 04:11:57;;;;;;;9.48;8.48;;;;;;;10.12;87.64;94063.19;5055062;28;20045;-75
2024/02/11 04:14:25;;;;;;;9.60;8.15;;;;;;;10.13;87.66;94064.00;5055151;28;20132;-75
2024/02/11 04:16:55;;;;;;;10.70;8.50;;;;;;;10.14;88.30;94063.72;5054984;28;20055;-75
2024/02/11 04:19:25;;;;;;;10.50;9.15;;;;;;;10.15;88.18;94067.94;5055131;28;20126;-75
2024/02/11 04:21:54;;;;;;;10.77;8.55;;;;;;;10.13;87.37;94069.97;5055060;28;20049;-75
2024/02/11 04:24:21;;;;;;;9.65;8.60;;;;;;;10.14;87.16;94071.53;5054534;28;20479;-76
2024/02/11 04:26:53;;;;;;;9.32;8.15;;;;;;;10.14;86.72;94068.94;5055067;28;20140;-76
2024/02/11 04:29:21;;;;;;;8.85;7.50;;;;;;;10.14;86.71;94081.97;5055211;28;20056;-75
2024/02/11 04:31:50;;;;;;;9.65;7.97;;;;;;;10.14;86.51;94089.00;5054845;28;20187;-75
2024/02/11 04:34:21;;;;;;;7.50;6.80;;;;;;;10.07;85.79;94099.59;5055063;28;20103;-75
2024/02/11 04:36:49;;;;;;;3.30;2.80;;;;;;;9.96;84.24;94113.50;5054766;28;20088;-75
2024/02/11 04:39:18;;;;;;;0.98;0.82;;;;;;;9.80;82.22;94113.28;5055172;28;20053;-75
2024/02/11 04:41:46;;;;;;;1.35;1.25;;;;;;;9.66;82.15;94122.41;5055025;28;20103;-75
2024/02/11 04:44:15;;;;;;;1.08;0.80;;;;;;;9.55;82.76;94121.47;5054589;28;20041;-75
2024/02/11 04:46:43;;;;;;;0.47;0.47;;;;;;;9.47;82.36;94134.88;5054651;28;20052;-75
2024/02/11 04:49:10;;;;;;;0.50;0.50;;;;;;;9.40;82.27;94137.63;5054426;28;20092;-76
2024/02/11 04:51:39;;;;;;;0.43;0.30;;;;;;;9.36;82.72;94131.31;5066764;28;20063;-75
2024/02/11 04:54:07;;;;;;;0.30;0.25;;;;;;;9.29;81.89;94143.66;5074752;28;20075;-78
2024/02/11 04:56:38;;;;;;;0.35;0.20;;;;;;;9.20;80.89;94150.25;5074485;28;20583;-75
2024/02/11 04:59:07;;;;;;;0.75;0.30;;;;;;;9.12;81.66;94142.81;5074366;28;20473;-77
2024/02/11 05:01:36;;;;;;;0.10;0.10;;;;;;;9.06;81.96;94147.94;5074161;28;20135;-76
2024/02/11 05:04:03;;;;;;;0.40;0.20;;;;;;;9.01;81.57;94158.25;5073674;28;20045;-77
2024/02/11 05:06:31;;;;;;;0.20;0.20;;;;;;;8.97;80.55;94164.94;5074085;28;20495;-77
2024/02/11 05:09:00;;;;;;;0.10;0.10;;;;;;;8.89;80.07;94164.53;5074112;28;20045;-77
2024/02/11 05:11:28;;;;;;;1.27;0.10;;;;;;;8.81;79.28;94183.84;5072979;28;20056;-77
2024/02/11 05:13:58;;;;;;;0.32;0.10;;;;;;;8.69;78.91;94175.31;5074042;28;20044;-78
2024/02/11 05:16:28;;;;;;;0.10;0.10;;;;;;;8.57;79.11;94183.91;5073681;28;20527;-77
2024/02/11 05:18:56;;;;;;;0.25;0.17;;;;;;;8.50;79.40;94185.81;5074043;28;20048;-79
2024/02/11 05:21:24;;;;;;;0.10;0.10;;;;;;;8.42;78.84;94191.38;5073974;28;20052;-78
2024/02/11 05:23:51;;;;;;;0.20;0.20;;;;;;;8.33;78.57;94197.88;5073882;28;20480;-79
2024/02/11 05:26:21;;;;;;;0.40;0.30;;;;;;;8.25;78.56;94202.41;5073827;28;20496;-79
2024/02/11 05:28:49;;;;;;;0.52;0.30;;;;;;;8.21;79.36;94211.66;5073719;28;20079;-79
2024/02/11 05:31:21;;;;;;;0.70;0.40;;;;;;;8.15;78.51;94228.16;5073589;28;20044;-79
2024/02/11 05:33:49;;;;;;;0.70;0.35;;;;;;;8.09;79.21;94223.88;5073613;28;20044;-79
2024/02/11 05:36:16;;;;;;;1.20;1.10;;;;;;;8.05;78.91;94222.75;5073610;28;20048;-78
2024/02/11 05:38:44;;;;;;;0.47;0.40;;;;;;;8.04;79.04;94227.13;5073705;28;20501;-79
2024/02/11 05:41:12;;;;;;;0.70;0.63;;;;;;;8.03;79.02;94227.34;5073587;28;20511;-78
2024/02/11 05:43:41;;;;;;;0.80;0.80;;;;;;;8.01;79.13;94232.75;5073117;28;20044;-78
2024/02/11 05:46:09;;;;;;;0.50;0.43;;;;;;;7.99;79.29;94234.00;5073379;28;20496;-79
2024/02/11 05:48:38;;;;;;;0.55;0.55;;;;;;;7.97;79.90;94238.63;5073469;28;20105;-78
2024/02/11 05:51:06;;;;;;;0.70;0.70;;;;;;;7.97;80.51;94236.03;5064977;28;20048;-78
2024/02/11 05:53:35;;;;;;;0.68;0.65;;;;;;;7.98;79.74;94240.19;5053368;28;20513;-78
2024/02/11 05:56:04;;;;;;;0.50;0.50;;;;;;;7.97;79.96;94247.19;5053054;28;20053;-78
2024/02/11 05:58:32;;;;;;;0.45;0.45;;;;;;;7.95;79.91;94251.03;5053415;28;20051;-79
2024/02/11 06:01:00;;;;;;;0.50;0.50;;;;;;;7.88;79.31;94251.13;5053143;28;20079;-78
2024/02/11 06:03:27;;;;;;;0.47;0.47;;;;;;;7.83;79.05;94251.81;5053116;28;20049;-79
2024/02/11 06:05:56;;;;;;;0.65;0.65;;;;;;;7.78;78.69;94243.91;5052817;28;20080;-79
2024/02/11 06:08:24;;;;;;;0.45;0.45;;;;;;;7.77;78.74;94252.69;5052889;28;20137;-79
2024/02/11 06:10:51;;;;;;;0.63;0.63;;;;;;;7.75;78.27;94249.53;5052550;28;20060;-79
2024/02/11 06:13:19;;;;;;;0.73;0.73;;;;;;;7.70;78.20;94256.41;5053033;28;20049;-79
2024/02/11 06:15:47;;;;;;;0.30;0.30;;;;;;;7.67;78.18;94264.63;5053107;28;20432;-78
2024/02/11 06:18:15;;;;;;;1.27;0.63;;;;;;;7.62;78.62;94260.88;5052816;28;20102;-79
2024/02/11 06:20:42;;;;;;;0.68;0.60;;;;;;;7.64;78.70;94271.81;5053566;28;20048;-78
2024/02/11 06:23:11;;;;;;;1.00;0.90;;;;;;;7.68;79.39;94276.59;5052209;28;20140;-79
2024/02/11 06:25:39;;;;;;;0.63;0.63;;;;;;;7.70;79.42;94277.94;5052737;28;20049;-79
2024/02/11 06:28:08;;;;;;;0.50;0.50;;;;;;;7.70;79.29;94288.31;5052746;28;20048;-79
2024/02/11 06:30:37;;;;;;;0.90;0.90;;;;;;;7.69;79.42;94291.91;5052795;28;20060;-78
2024/02/11 06:33:06;;;;;;;14.63;7.55;;;;;;;7.67;79.57;94295.75;5052398;28;20144;-78
2024/02/11 06:35:34;;;;;;;23.90;12.75;;;;;;;7.68;80.19;94305.91;5051801;28;20041;-79
2024/02/11 06:38:04;;;;;;;2.53;1.85;;;;;;;7.71;80.05;94308.06;5052613;28;20499;-78
2024/02/11 06:40:34;;;;;;;1.65;1.40;;;;;;;7.73;80.19;94321.63;5052374;28;20053;-78
2024/02/11 06:43:10;;;;;;;1.98;1.50;;;;;;;7.72;80.38;94320.03;5052397;28;20049;-79
2024/02/11 06:45:40;;;;;;;1.60;1.13;;;;;;;7.74;80.90;94314.63;5052118;28;20508;-79
2024/02/11 06:48:08;;;;;;;0.70;0.57;;;;;;;7.74;80.53;94319.81;5052229;28;20053;-79
2024/02/11 06:50:38;;;;;;;0.85;0.80;;;;;;;7.72;79.87;94327.00;5056562;28;20426;-78
2024/02/11 06:53:07;;;;;;;0.63;0.60;;;;;;;7.70;79.24;94335.03;5072381;28;20048;-79
2024/02/11 06:55:36;;;;;;;0.73;0.73;;;;;;;7.64;79.37;94331.50;5072061;28;20067;-78
2024/02/11 06:58:05;;;;;;;0.50;0.50;;;;;;;7.61;80.54;94341.53;5072278;28;20441;-78
2024/02/11 07:00:33;;;;;;;11.80;8.13;;;;;;;7.65;80.67;94353.03;5072098;28;20072;-79
2024/02/11 07:03:03;;;;;;;8.90;6.18;;;;;;;7.66;79.38;94354.66;5070742;28;20546;-79
2024/02/11 07:05:31;;;;;;;1.98;1.00;;;;;;;7.60;79.00;94355.50;5071543;28;20049;-79
2024/02/11 07:07:59;;;;;;;0.70;0.70;;;;;;;7.57;79.16;94361.16;5058452;28;20132;-78
2024/02/11 07:10:28;;;;;;;1.00;0.70;;;;;;;7.52;79.49;94366.19;5051501;28;20106;-79
2024/02/11 07:12:57;;;;;;;0.45;0.43;;;;;;;7.51;78.39;94377.56;5051770;28;20045;-78
2024/02/11 07:15:25;;;;;;;1.40;0.70;;;;;;;7.48;78.13;94378.81;5052866;28;20060;-78
2024/02/11 07:17:53;;;;;;;0.90;0.65;;;;;;;7.48;79.13;94378.00;5053417;28;20072;-79
2024/02/11 07:20:22;;;;;;;1.00;0.45;;;;;;;7.49;79.57;94380.38;5057601;28;20071;-80
2024/02/11 07:22:50;;;;;;;2.30;0.63;;;;;;;7.47;79.39;94389.38;5071734;28;20063;-81
2024/02/11 07:25:17;;;;;;;14.27;7.88;;;;;;;7.43;79.41;94392.44;5073883;28;20079;-81
2024/02/11 07:27:46;;;;;;;28.65;17.45;;;;;;;7.46;80.54;94390.41;5060153;28;20132;-81
2024/02/11 07:30:15;;;;;;;3.95;2.05;;;;;;;7.42;80.65;94396.00;5057554;28;20135;-81
2024/02/11 07:32:43;;;;;;;1.50;0.80;;;;;;;7.37;79.10;94397.69;5052592;28;20118;-80
2024/02/11 07:35:12;;;;;;;0.75;0.68;;;;;;;7.34;80.46;94398.88;5056576;28;20049;-81
2024/02/11 07:37:41;;;;;;;0.52;0.52;;;;;;;7.33;80.25;94402.50;5056010;28;20091;-80
2024/02/11 07:40:11;;;;;;;0.95;0.77;;;;;;;7.30;80.83;94404.72;5055704;28;20045;-80
2024/02/11 07:42:41;;;;;;;0.50;0.50;;;;;;;7.31;81.95;94414.88;5057492;28;20053;-81
2024/02/11 07:45:14;;;;;;;0.77;0.52;;;;;;;7.32;80.20;94405.31;5056817;28;20063;-80
2024/02/11 07:47:47;;;;;;;0.95;0.60;;;;;;;7.25;78.69;94410.56;5055275;28;20095;-80
2024/02/11 07:50:16;;;;;;;0.63;0.50;;;;;;;7.20;78.47;94418.19;5056370;28;20053;-82
2024/02/11 07:52:44;;;;;;;1.30;0.57;;;;;;;7.19;79.66;94421.78;5055378;28;20048;-80
2024/02/11 07:55:12;;;;;;;1.15;0.70;;;;;;;7.18;79.49;94431.38;5056154;28;20102;-80
2024/02/11 07:57:40;;;;;;;0.60;0.60;;;;;;;7.17;79.88;94429.78;5055865;28;20084;-80
2024/02/11 08:00:08;;;;;;;0.50;0.50;;;;;;;7.18;79.80;94430.56;5055991;28;20125;-80
2024/02/11 08:02:35;;;;;;;0.90;0.77;;;;;;;7.18;79.79;94430.56;5055617;28;20044;-80
2024/02/11 08:05:06;;;;;;;1.20;1.10;;;;;;;7.23;81.47;94433.31;5055588;28;20055;-80
2024/02/11 08:07:34;;;;;;;7.35;4.65;;;;;;;7.27;80.58;94441.47;5056529;28;20069;-79
2024/02/11 08:10:03;;;;;;;4.00;3.03;;;;;;;7.28;79.40;94441.25;5055738;28;20040;-79
2024/02/11 08:12:33;;;;;;;7.07;4.65;;;;;;;7.24;79.97;94445.28;5055460;28;20131;-79
2024/02/11 08:15:01;;;;;;;1.90;1.60;;;;;;;7.26;81.01;94448.47;5055734;28;20044;-81
2024/02/11 08:17:29;;;;;;;2.97;1.42;;;;;;;7.24;80.14;94445.28;5055240;28;20068;-80
2024/02/11 08:19:56;;;;;;;1.90;1.38;;;;;;;7.27;81.29;94449.25;5055666;28;20048;-79
2024/02/11 08:22:25;;;;;;;1.17;1.08;;;;;;;7.30;80.05;94449.59;5055165;28;20044;-79
2024/02/11 08:24:53;;;;;;;2.95;1.40;;;;;;;7.31;79.25;94447.81;5054915;28;20056;-80
2024/02/11 08:27:20;;;;;;;1.35;1.25;;;;;;;7.36;80.68;94456.53;5035451;28;20128;-79
2024/02/11 08:29:51;;;;;;;2.88;1.77;;;;;;;7.40;80.42;94460.28;5035329;28;20519;-79
2024/02/11 08:32:19;;;;;;;1.98;1.38;;;;;;;7.40;79.67;94460.28;5053250;28;20053;-79
2024/02/11 08:34:48;;;;;;;2.67;1.38;;;;;;;7.42;79.54;94458.28;5054708;28;20092;-79
2024/02/11 08:37:15;;;;;;;2.58;1.70;;;;;;;7.42;79.93;94463.47;5055217;28;20135;-78
2024/02/11 08:39:45;;;;;;;2.25;1.73;;;;;;;7.46;79.71;94457.84;5054913;28;20136;-78
2024/02/11 08:42:14;;;;;;;2.75;1.52;;;;;;;7.48;80.78;94454.03;5054506;28;20045;-78
2024/02/11 08:44:41;;;;;;;47.42;27.80;;;;;;;7.56;81.59;94458.13;5053480;28;20095;-78
2024/02/11 08:47:09;;;;;;;49.72;27.38;;;;;;;7.62;82.10;94457.28;5054056;28;20045;-80
2024/02/11 08:49:37;;;;;;;11.77;6.55;;;;;;;7.64;81.09;94460.47;5055093;28;20053;-79
2024/02/11 08:52:04;;;;;;;3.58;2.53;;;;;;;7.62;79.84;94462.47;5055467;28;20053;-79
2024/02/11 08:54:34;;;;;;;3.05;2.20;;;;;;;7.61;79.84;94466.09;5054396;28;20049;-80
2024/02/11 08:57:04;;;;;;;3.28;2.95;;;;;;;7.67;81.52;94470.38;5054130;28;20041;-79
2024/02/11 08:59:31;;;;;;;3.53;2.28;;;;;;;7.70;80.55;94467.38;5054702;28;20076;-80
2024/02/11 09:02:00;;;;;;;2.53;2.03;;;;;;;7.72;80.13;94462.78;5054487;28;20131;-79
2024/02/11 09:04:28;;;;;;;2.55;2.22;;;;;;;7.73;78.53;94468.75;5054413;28;20049;-78
2024/02/11 09:06:56;;;;;;;2.60;1.70;;;;;;;7.68;79.16;94466.81;5068342;28;20049;-77
2024/02/11 09:09:26;;;;;;;2.42;2.20;;;;;;;7.72;80.44;94478.34;5058854;28;20223;-80
2024/02/11 09:11:54;;;;;;;3.15;1.90;;;;;;;7.75;80.56;94472.72;5054015;28;20440;-79
2024/02/11 09:14:24;;;;;;;3.17;2.35;;;;;;;7.78;80.34;94477.47;5054574;28;20069;-78
2024/02/11 09:16:52;;;;;;;4.60;2.45;;;;;;;7.81;80.69;94482.22;5054199;28;20118;-78
2024/02/11 09:19:21;;;;;;;2.55;2.13;;;;;;;7.87;80.73;94487.56;5054322;28;20136;-79
2024/02/11 09:21:48;;;;;;;3.83;2.58;;;;;;;7.90;81.29;94489.75;5053776;28;20056;-78
2024/02/11 09:24:17;;;;;;;4.18;2.45;;;;;;;7.92;80.06;94490.31;5054043;28;20128;-80
2024/02/11 09:26:45;;;;;;;2.33;1.73;;;;;;;7.90;80.12;94495.72;5055145;28;20040;-78
2024/02/11 09:29:13;;;;;;;4.65;2.83;;;;;;;7.94;80.61;94498.69;5054222;28;20048;-81
2024/02/11 09:31:41;;;;;;;2.38;1.98;;;;;;;7.90;78.58;94506.09;5054985;28;20470;-80
2024/02/11 09:34:09;;;;;;;3.47;2.47;;;;;;;7.88;79.80;94502.13;5054588;28;20402;-80
2024/02/11 09:36:39;;;;;;;4.07;2.72;;;;;;;7.89;79.89;94508.91;5060619;28;20056;-81
2024/02/11 09:39:10;;;;;;;4.70;2.92;;;;;;;7.90;79.61;94506.09;5075773;28;20045;-82
2024/02/11 09:41:37;;;;;;;6.22;2.70;;;;;;;7.90;79.34;94516.47;5076254;28;20033;-82
2024/02/11 09:44:06;;;;;;;4.30;3.25;;;;;;;7.89;78.21;94516.69;5064306;28;20056;-82
2024/02/11 09:46:35;;;;;;;5.10;3.22;;;;;;;7.90;79.96;94515.69;5058305;28;20041;-81
2024/02/11 09:49:09;;;;;;;4.78;2.85;;;;;;;7.92;78.71;94511.88;5056264;28;20127;-81
2024/02/11 09:51:37;;;;;;;4.88;3.17;;;;;;;7.91;78.32;94507.66;5057074;28;20083;-81
2024/02/11 09:54:05;;;;;;;3.95;2.92;;;;;;;7.92;78.56;94513.69;5057628;28;20556;-82
2024/02/11 09:56:34;;;;;;;4.45;3.28;;;;;;;7.95;78.88;94513.22;5055927;28;20076;-81
2024/02/11 09:59:02;;;;;;;6.78;3.50;;;;;;;7.96;78.13;94512.22;5056256;28;20473;-81
2024/02/11 10:01:33;;;;;;;4.43;3.15;;;;;;;7.96;78.57;94514.81;5057134;28;20053;-81
2024/02/11 10:04:04;;;;;;;6.22;3.33;;;;;;;7.97;78.00;94521.59;5057695;28;20110;-83
2024/02/11 10:06:37;;;;;;;4.72;2.63;;;;;;;8.05;79.62;94523.91;5055663;28;20041;-81
2024/02/11 10:09:05;;;;;;;4.80;2.88;;;;;;;8.12;78.18;94526.44;5056471;28;20049;-81
2024/02/11 10:11:34;;;;;;;6.55;3.08;;;;;;;8.10;77.67;94524.06;5056400;28;20073;-81
2024/02/11 10:17:41;;;;;;;5.68;3.58;;;;;;;8.17;77.52;94535.16;5385781;22;20057;-81
2024/02/11 10:20:13;;;;;;;8.30;3.28;;;;;;;8.20;77.52;94537.34;5058541;28;20403;-79
2024/02/11 10:22:43;;;;;;;7.50;3.88;;;;;;;8.22;78.16;94531.91;5055973;28;20456;-81
2024/02/11 10:25:11;;;;;;;3.33;2.75;;;;;;;8.26;77.66;94540.84;5056634;28;20087;-81
2024/02/11 10:27:40;;;;;;;3.42;3.13;;;;;;;8.30;78.23;94546.41;5054045;28;20150;-81
2024/02/11 10:30:11;;;;;;;5.43;3.40;;;;;;;8.33;77.29;94546.78;5053640;28;20595;-81
2024/02/11 10:32:39;;;;;;;3.92;3.40;;;;;;;8.38;77.39;94548.72;5056235;28;20049;-81
2024/02/11 10:35:08;;;;;;;7.70;3.92;;;;;;;8.46;77.93;94551.03;5053298;28;20045;-81
2024/02/11 10:37:38;;;;;;;4.85;2.97;;;;;;;8.54;78.36;94557.75;5053454;28;20049;-81
2024/02/11 10:40:10;;;;;;;4.30;3.30;;;;;;;8.57;79.49;94559.91;5053774;28;20047;-79
2024/02/11 10:42:38;;;;;;;3.25;2.85;;;;;;;8.63;79.15;94569.41;5054042;28;20055;-80
2024/02/11 10:45:07;;;;;;;3.92;2.95;;;;;;;8.63;78.42;94567.59;5052719;28;20485;-80
2024/02/11 10:47:34;;;;;;;4.50;2.88;;;;;;;8.61;77.23;94561.03;5053085;28;20134;-81
2024/02/11 10:50:03;;;;;;;5.75;3.40;;;;;;;8.60;77.65;94562.88;5052774;28;20049;-81
2024/02/11 10:52:36;;;;;;;5.82;3.40;;;;;;;8.63;78.05;94562.41;5052767;28;20118;-80
2024/02/11 10:55:06;;;;;;;5.28;3.33;;;;;;;8.64;77.15;94571.03;5052512;28;20049;-81
2024/02/11 10:57:47;;;;;;;4.60;3.55;;;;;;;8.62;77.58;94563.44;5039130;28;20535;-80
2024/02/11 11:00:18;;;;;;;5.07;2.88;;;;;;;8.64;77.64;94566.63;5034088;28;20077;-80
2024/02/11 11:02:50;;;;;;;3.55;2.92;;;;;;;8.63;77.67;94565.00;5052573;28;20516;-81
2024/02/11 11:05:21;;;;;;;5.55;3.35;;;;;;;8.68;78.59;94563.56;5052573;28;20049;-81
2024/02/11 11:07:53;;;;;;;8.43;3.45;;;;;;;8.72;77.07;94554.31;5051622;28;20048;-81
2024/02/11 11:10:21;;;;;;;3.97;3.20;;;;;;;8.70;76.84;94561.53;5046414;28;20409;-80
2024/02/11 11:12:54;;;;;;;5.22;3.42;;;;;;;8.71;76.44;94563.13;5032681;28;20183;-80
2024/02/11 11:15:23;;;;;;;6.75;3.40;;;;;;;8.77;76.76;94570.06;5035078;28;20140;-80
2024/02/11 11:17:51;;;;;;;6.10;3.10;;;;;;;8.81;77.24;94564.19;5052224;28;20045;-80
2024/02/11 11:20:19;;;;;;;4.18;3.25;;;;;;;8.85;77.50;94554.97;5052484;28;20087;-80
2024/02/11 11:22:50;;;;;;;4.75;3.00;;;;;;;8.90;77.36;94554.28;5053661;28;20045;-81
2024/02/11 11:25:20;;;;;;;3.97;3.15;;;;;;;8.93;75.83;94559.03;5054004;28;20122;-79
2024/02/11 11:27:50;;;;;;;6.00;2.92;;;;;;;8.97;76.26;94557.59;5055146;28;20564;-80
2024/02/11 11:30:23;;;;;;;4.90;2.85;;;;;;;9.02;75.45;94559.50;5053149;28;20618;-81
2024/02/11 11:33:02;;;;;;;5.47;3.45;;;;;;;9.07;76.28;94557.84;5053948;28;20084;-81
2024/02/11 11:35:48;;;;;;;4.97;3.28;;;;;;;9.14;76.25;94551.72;5052931;28;20056;-81
2024/02/11 11:38:27;;;;;;;3.67;2.47;;;;;;;9.19;75.13;94559.69;5059334;28;20104;-82
2024/02/11 11:59:43;;;;;;;3.97;2.83;;;;;;;9.16;74.20;94555.72;5050112;28;20063;-81
2024/02/11 12:02:12;;;;;;;3.70;3.00;;;;;;;9.17;74.31;94553.91;5051778;28;20052;-80
2024/02/11 12:04:41;;;;;;;7.20;2.97;;;;;;;9.23;75.63;94556.41;5055210;28;20056;-80
2024/02/11 12:07:10;;;;;;;4.57;2.80;;;;;;;9.22;73.83;94554.81;5057301;28;20054;-83